sensor_id;sensor_type;location;lat;lon;timestamp;P1;durP1;ratioP1;P2;durP2;ratioP2
29732;SDS011;16643;43.158;25.302;2022-09-20T00:02:17;0.60;;;0.47;;
29732;SDS011;16643;43.158;25.302;2022-09-20T00:04:43;4.15;;;0.63;;
29732;SDS011;16643;43.158;25.302;2022-09-20T00:07:09;2.00;;;0.55;;
29732;SDS011;16643;43.158;25.302;2022-09-20T00:09:34;1.73;;;0.75;;
29732;SDS011;16643;43.158;25.302;2022-09-20T00:12:00;0.77;;;0.43;;
29732;SDS011;16643;43.158;25.302;2022-09-20T00:14:26;1.15;;;0.63;;
29732;SDS011;16643;43.158;25.302;2022-09-20T00:16:51;0.90;;;0.50;;
29732;SDS011;16643;43.158;25.302;2022-09-20T00:19:19;1.27;;;0.75;;
29732;SDS011;16643;43.158;25.302;2022-09-20T00:21:46;1.42;;;0.80;;
29732;SDS011;16643;43.158;25.302;2022-09-20T00:24:11;1.08;;;0.65;;
29732;SDS011;16643;43.158;25.302;2022-09-20T00:26:38;0.80;;;0.70;;
29732;SDS011;16643;43.158;25.302;2022-09-20T00:29:04;1.30;;;0.90;;
29732;SDS011;16643;43.158;25.302;2022-09-20T00:31:30;1.00;;;0.65;;
29732;SDS011;16643;43.158;25.302;2022-09-20T00:34:19;2.60;;;0.90;;
29732;SDS011;16643;43.158;25.302;2022-09-20T00:50:04;1.63;;;0.90;;
29732;SDS011;16643;43.158;25.302;2022-09-20T00:52:38;2.85;;;1.17;;
29732;SDS011;16643;43.158;25.302;2022-09-20T00:55:05;2.60;;;1.08;;
29732;SDS011;16643;43.158;25.302;2022-09-20T00:57:33;1.67;;;1.10;;
29732;SDS011;16643;43.158;25.302;2022-09-20T01:00:04;2.13;;;1.23;;
29732;SDS011;16643;43.158;25.302;2022-09-20T01:02:33;1.27;;;1.13;;
29732;SDS011;16643;43.158;25.302;2022-09-20T01:07:27;2.25;;;1.60;;
29732;SDS011;16643;43.158;25.302;2022-09-20T01:09:54;3.70;;;1.50;;
29732;SDS011;16643;43.158;25.302;2022-09-20T01:12:22;2.38;;;1.35;;
29732;SDS011;16643;43.158;25.302;2022-09-20T01:14:51;2.28;;;1.50;;
29732;SDS011;16643;43.158;25.302;2022-09-20T01:17:19;4.53;;;1.80;;
29732;SDS011;16643;43.158;25.302;2022-09-20T01:20:07;2.35;;;1.70;;
29732;SDS011;16643;43.158;25.302;2022-09-20T01:28:30;2.55;;;1.85;;
29732;SDS011;16643;43.158;25.302;2022-09-20T01:30:59;5.07;;;1.70;;
29732;SDS011;16643;43.158;25.302;2022-09-20T01:33:38;2.47;;;2.00;;
29732;SDS011;16643;43.158;25.302;2022-09-20T01:36:15;4.85;;;1.70;;
29732;SDS011;16643;43.158;25.302;2022-09-20T01:38:50;2.50;;;1.88;;
29732;SDS011;16643;43.158;25.302;2022-09-20T01:41:22;2.28;;;1.90;;
29732;SDS011;16643;43.158;25.302;2022-09-20T01:44:47;2.40;;;1.90;;
29732;SDS011;16643;43.158;25.302;2022-09-20T01:50:48;2.90;;;2.35;;
29732;SDS011;16643;43.158;25.302;2022-09-20T01:55:37;2.70;;;2.17;;
29732;SDS011;16643;43.158;25.302;2022-09-20T02:06:23;2.17;;;1.90;;
29732;SDS011;16643;43.158;25.302;2022-09-20T02:11:52;2.88;;;2.17;;
29732;SDS011;16643;43.158;25.302;2022-09-20T02:14:58;3.05;;;2.30;;
29732;SDS011;16643;43.158;25.302;2022-09-20T02:21:17;2.88;;;2.20;;
29732;SDS011;16643;43.158;25.302;2022-09-20T02:28:24;3.63;;;2.25;;
29732;SDS011;16643;43.158;25.302;2022-09-20T02:42:22;3.13;;;2.08;;
29732;SDS011;16643;43.158;25.302;2022-09-20T02:45:03;2.70;;;2.10;;
29732;SDS011;16643;43.158;25.302;2022-09-20T02:47:46;2.35;;;1.85;;
29732;SDS011;16643;43.158;25.302;2022-09-20T02:50:30;2.40;;;1.83;;
29732;SDS011;16643;43.158;25.302;2022-09-20T03:06:54;3.80;;;2.22;;
29732;SDS011;16643;43.158;25.302;2022-09-20T03:12:09;2.63;;;2.00;;
29732;SDS011;16643;43.158;25.302;2022-09-20T03:17:58;2.85;;;1.90;;
29732;SDS011;16643;43.158;25.302;2022-09-20T03:29:00;2.85;;;2.30;;
29732;SDS011;16643;43.158;25.302;2022-09-20T03:37:34;2.13;;;1.92;;
29732;SDS011;16643;43.158;25.302;2022-09-20T03:42:51;4.55;;;2.10;;
29732;SDS011;16643;43.158;25.302;2022-09-20T03:45:28;3.60;;;2.20;;
29732;SDS011;16643;43.158;25.302;2022-09-20T03:48:27;4.40;;;2.22;;
29732;SDS011;16643;43.158;25.302;2022-09-20T03:54:50;2.80;;;2.05;;
29732;SDS011;16643;43.158;25.302;2022-09-20T03:57:56;4.70;;;1.87;;
29732;SDS011;16643;43.158;25.302;2022-09-20T04:11:26;2.90;;;2.13;;
29732;SDS011;16643;43.158;25.302;2022-09-20T04:19:40;3.28;;;2.22;;
29732;SDS011;16643;43.158;25.302;2022-09-20T04:22:13;2.33;;;1.83;;
29732;SDS011;16643;43.158;25.302;2022-09-20T04:27:19;2.95;;;2.20;;
29732;SDS011;16643;43.158;25.302;2022-09-20T04:29:51;2.78;;;2.08;;
29732;SDS011;16643;43.158;25.302;2022-09-20T04:38:15;3.78;;;2.05;;
29732;SDS011;16643;43.158;25.302;2022-09-20T04:43:43;3.42;;;1.92;;
29732;SDS011;16643;43.158;25.302;2022-09-20T04:46:58;3.13;;;2.15;;
29732;SDS011;16643;43.158;25.302;2022-09-20T05:00:42;2.78;;;2.00;;
29732;SDS011;16643;43.158;25.302;2022-09-20T05:12:40;2.85;;;2.20;;
29732;SDS011;16643;43.158;25.302;2022-09-20T05:15:37;4.50;;;2.03;;
29732;SDS011;16643;43.158;25.302;2022-09-20T05:20:48;2.83;;;1.90;;
29732;SDS011;16643;43.158;25.302;2022-09-20T05:31:57;2.92;;;1.92;;
29732;SDS011;16643;43.158;25.302;2022-09-20T05:34:39;2.63;;;1.73;;
29732;SDS011;16643;43.158;25.302;2022-09-20T05:37:33;2.58;;;1.83;;
29732;SDS011;16643;43.158;25.302;2022-09-20T05:40:45;1.38;;;1.23;;
29732;SDS011;16643;43.158;25.302;2022-09-20T05:43:17;2.45;;;1.63;;
29732;SDS011;16643;43.158;25.302;2022-09-20T05:46:04;2.10;;;1.63;;
29732;SDS011;16643;43.158;25.302;2022-09-20T06:00:07;2.92;;;1.33;;
29732;SDS011;16643;43.158;25.302;2022-09-20T06:05:28;2.40;;;1.50;;
29732;SDS011;16643;43.158;25.302;2022-09-20T06:10:56;1.98;;;1.02;;
29732;SDS011;16643;43.158;25.302;2022-09-20T06:13:37;1.33;;;0.90;;
29732;SDS011;16643;43.158;25.302;2022-09-20T06:16:08;1.13;;;0.63;;
29732;SDS011;16643;43.158;25.302;2022-09-20T06:23:41;1.58;;;0.70;;
29732;SDS011;16643;43.158;25.302;2022-09-20T06:26:21;1.23;;;0.68;;
29732;SDS011;16643;43.158;25.302;2022-09-20T06:28:56;1.25;;;0.80;;
29732;SDS011;16643;43.158;25.302;2022-09-20T06:31:27;2.60;;;0.98;;
29732;SDS011;16643;43.158;25.302;2022-09-20T06:33:55;2.28;;;0.90;;
29732;SDS011;16643;43.158;25.302;2022-09-20T06:36:26;1.70;;;0.80;;
29732;SDS011;16643;43.158;25.302;2022-09-20T06:42:07;1.85;;;0.80;;
29732;SDS011;16643;43.158;25.302;2022-09-20T06:44:34;2.22;;;1.23;;
29732;SDS011;16643;43.158;25.302;2022-09-20T06:47:06;2.20;;;0.80;;
29732;SDS011;16643;43.158;25.302;2022-09-20T06:49:34;1.92;;;0.90;;
29732;SDS011;16643;43.158;25.302;2022-09-20T06:52:00;2.63;;;0.90;;
29732;SDS011;16643;43.158;25.302;2022-09-20T06:54:30;1.58;;;0.90;;
29732;SDS011;16643;43.158;25.302;2022-09-20T06:56:56;1.33;;;0.95;;
29732;SDS011;16643;43.158;25.302;2022-09-20T06:59:22;1.00;;;0.70;;
29732;SDS011;16643;43.158;25.302;2022-09-20T07:01:47;1.73;;;0.73;;
29732;SDS011;16643;43.158;25.302;2022-09-20T07:04:13;1.33;;;0.70;;
29732;SDS011;16643;43.158;25.302;2022-09-20T07:06:39;2.38;;;1.00;;
29732;SDS011;16643;43.158;25.302;2022-09-20T07:09:05;0.90;;;0.70;;
29732;SDS011;16643;43.158;25.302;2022-09-20T07:11:31;0.85;;;0.63;;
29732;SDS011;16643;43.158;25.302;2022-09-20T07:13:58;0.75;;;0.63;;
29732;SDS011;16643;43.158;25.302;2022-09-20T07:16:24;1.00;;;0.70;;
29732;SDS011;16643;43.158;25.302;2022-09-20T07:18:50;1.40;;;0.77;;
29732;SDS011;16643;43.158;25.302;2022-09-20T07:21:17;1.70;;;0.65;;
29732;SDS011;16643;43.158;25.302;2022-09-20T07:23:44;3.28;;;0.68;;
29732;SDS011;16643;43.158;25.302;2022-09-20T07:26:26;1.38;;;0.98;;
29732;SDS011;16643;43.158;25.302;2022-09-20T07:28:53;0.70;;;0.50;;
29732;SDS011;16643;43.158;25.302;2022-09-20T07:31:20;2.33;;;0.57;;
29732;SDS011;16643;43.158;25.302;2022-09-20T07:33:47;1.40;;;0.80;;
29732;SDS011;16643;43.158;25.302;2022-09-20T07:36:13;1.17;;;0.60;;
29732;SDS011;16643;43.158;25.302;2022-09-20T07:38:40;1.77;;;1.08;;
29732;SDS011;16643;43.158;25.302;2022-09-20T07:41:07;0.70;;;0.60;;
29732;SDS011;16643;43.158;25.302;2022-09-20T07:43:33;4.95;;;1.58;;
29732;SDS011;16643;43.158;25.302;2022-09-20T07:45:59;2.42;;;1.20;;
29732;SDS011;16643;43.158;25.302;2022-09-20T07:48:26;1.77;;;1.10;;
29732;SDS011;16643;43.158;25.302;2022-09-20T07:50:57;2.10;;;1.33;;
29732;SDS011;16643;43.158;25.302;2022-09-20T07:53:28;8.43;;;1.05;;
29732;SDS011;16643;43.158;25.302;2022-09-20T07:56:01;2.22;;;0.73;;
29732;SDS011;16643;43.158;25.302;2022-09-20T07:58:32;1.83;;;0.88;;
29732;SDS011;16643;43.158;25.302;2022-09-20T08:01:06;2.13;;;0.98;;
29732;SDS011;16643;43.158;25.302;2022-09-20T08:03:34;1.83;;;0.70;;
29732;SDS011;16643;43.158;25.302;2022-09-20T08:06:04;1.02;;;0.60;;
29732;SDS011;16643;43.158;25.302;2022-09-20T08:08:32;0.80;;;0.60;;
29732;SDS011;16643;43.158;25.302;2022-09-20T08:11:06;1.13;;;0.57;;
29732;SDS011;16643;43.158;25.302;2022-09-20T08:13:35;1.15;;;1.00;;
29732;SDS011;16643;43.158;25.302;2022-09-20T08:16:09;2.42;;;0.50;;
29732;SDS011;16643;43.158;25.302;2022-09-20T08:18:36;0.63;;;0.50;;
29732;SDS011;16643;43.158;25.302;2022-09-20T08:21:03;1.02;;;0.63;;
29732;SDS011;16643;43.158;25.302;2022-09-20T08:23:32;0.75;;;0.50;;
29732;SDS011;16643;43.158;25.302;2022-09-20T08:26:06;0.82;;;0.55;;
29732;SDS011;16643;43.158;25.302;2022-09-20T08:28:36;1.20;;;0.80;;
29732;SDS011;16643;43.158;25.302;2022-09-20T08:31:03;0.77;;;0.50;;
29732;SDS011;16643;43.158;25.302;2022-09-20T08:33:31;1.00;;;0.60;;
29732;SDS011;16643;43.158;25.302;2022-09-20T08:35:58;3.30;;;0.43;;
29732;SDS011;16643;43.158;25.302;2022-09-20T08:38:24;2.15;;;0.50;;
29732;SDS011;16643;43.158;25.302;2022-09-20T08:41:03;0.65;;;0.40;;
29732;SDS011;16643;43.158;25.302;2022-09-20T08:43:42;0.88;;;0.40;;
29732;SDS011;16643;43.158;25.302;2022-09-20T08:46:15;2.08;;;0.50;;
29732;SDS011;16643;43.158;25.302;2022-09-20T08:48:43;0.55;;;0.43;;
29732;SDS011;16643;43.158;25.302;2022-09-20T08:51:11;1.15;;;0.60;;
29732;SDS011;16643;43.158;25.302;2022-09-20T08:53:52;0.75;;;0.75;;
29732;SDS011;16643;43.158;25.302;2022-09-20T08:56:20;1.48;;;0.60;;
29732;SDS011;16643;43.158;25.302;2022-09-20T08:58:47;1.08;;;0.57;;
29732;SDS011;16643;43.158;25.302;2022-09-20T09:01:17;0.40;;;0.40;;
29732;SDS011;16643;43.158;25.302;2022-09-20T09:03:49;0.80;;;0.32;;
29732;SDS011;16643;43.158;25.302;2022-09-20T09:06:17;2.92;;;0.50;;
29732;SDS011;16643;43.158;25.302;2022-09-20T09:08:46;0.75;;;0.50;;
29732;SDS011;16643;43.158;25.302;2022-09-20T09:11:18;0.95;;;0.40;;
29732;SDS011;16643;43.158;25.302;2022-09-20T09:13:58;0.90;;;0.70;;
29732;SDS011;16643;43.158;25.302;2022-09-20T09:16:29;0.90;;;0.40;;
29732;SDS011;16643;43.158;25.302;2022-09-20T09:18:57;0.50;;;0.47;;
29732;SDS011;16643;43.158;25.302;2022-09-20T09:22:01;0.60;;;0.50;;
29732;SDS011;16643;43.158;25.302;2022-09-20T09:24:29;1.13;;;0.70;;
29732;SDS011;16643;43.158;25.302;2022-09-20T09:27:05;0.75;;;0.40;;
29732;SDS011;16643;43.158;25.302;2022-09-20T09:29:52;3.80;;;0.57;;
29732;SDS011;16643;43.158;25.302;2022-09-20T09:32:23;1.55;;;0.30;;
29732;SDS011;16643;43.158;25.302;2022-09-20T09:34:55;0.63;;;0.30;;
29732;SDS011;16643;43.158;25.302;2022-09-20T09:37:47;0.65;;;0.38;;
29732;SDS011;16643;43.158;25.302;2022-09-20T09:40:18;1.15;;;0.40;;
29732;SDS011;16643;43.158;25.302;2022-09-20T09:42:54;1.15;;;0.43;;
29732;SDS011;16643;43.158;25.302;2022-09-20T09:45:26;0.98;;;0.40;;
29732;SDS011;16643;43.158;25.302;2022-09-20T09:47:53;0.60;;;0.50;;
29732;SDS011;16643;43.158;25.302;2022-09-20T09:50:37;3.35;;;0.70;;
29732;SDS011;16643;43.158;25.302;2022-09-20T09:53:15;0.63;;;0.47;;
29732;SDS011;16643;43.158;25.302;2022-09-20T09:56:02;1.85;;;0.50;;
29732;SDS011;16643;43.158;25.302;2022-09-20T10:01:10;1.15;;;0.60;;
29732;SDS011;16643;43.158;25.302;2022-09-20T10:06:22;0.68;;;0.40;;
29732;SDS011;16643;43.158;25.302;2022-09-20T10:17:27;0.88;;;0.50;;
29732;SDS011;16643;43.158;25.302;2022-09-20T10:22:47;1.10;;;0.40;;
29732;SDS011;16643;43.158;25.302;2022-09-20T10:25:37;0.40;;;0.40;;
29732;SDS011;16643;43.158;25.302;2022-09-20T10:28:42;0.65;;;0.40;;
29732;SDS011;16643;43.158;25.302;2022-09-20T10:31:46;0.68;;;0.40;;
29732;SDS011;16643;43.158;25.302;2022-09-20T10:37:25;0.60;;;0.50;;
29732;SDS011;16643;43.158;25.302;2022-09-20T10:40:33;1.58;;;0.30;;
29732;SDS011;16643;43.158;25.302;2022-09-20T10:43:26;1.45;;;0.57;;
29732;SDS011;16643;43.158;25.302;2022-09-20T10:46:08;0.40;;;0.30;;
29732;SDS011;16643;43.158;25.302;2022-09-20T11:00:28;0.22;;;0.22;;
29732;SDS011;16643;43.158;25.302;2022-09-20T11:03:01;0.60;;;0.47;;
29732;SDS011;16643;43.158;25.302;2022-09-20T11:08:36;1.10;;;0.52;;
29732;SDS011;16643;43.158;25.302;2022-09-20T11:13:55;0.68;;;0.40;;
29732;SDS011;16643;43.158;25.302;2022-09-20T11:21:56;0.40;;;0.40;;
29732;SDS011;16643;43.158;25.302;2022-09-20T11:24:29;1.98;;;0.50;;
29732;SDS011;16643;43.158;25.302;2022-09-20T11:29:56;0.95;;;0.50;;
29732;SDS011;16643;43.158;25.302;2022-09-20T11:35:39;0.50;;;0.40;;
29732;SDS011;16643;43.158;25.302;2022-09-20T11:41:10;2.17;;;0.47;;
29732;SDS011;16643;43.158;25.302;2022-09-20T11:43:37;3.20;;;0.40;;
29732;SDS011;16643;43.158;25.302;2022-09-20T11:46:07;0.80;;;0.50;;
29732;SDS011;16643;43.158;25.302;2022-09-20T11:48:45;1.55;;;0.50;;
29732;SDS011;16643;43.158;25.302;2022-09-20T11:56:56;0.98;;;0.45;;
29732;SDS011;16643;43.158;25.302;2022-09-20T11:59:27;1.42;;;0.50;;
29732;SDS011;16643;43.158;25.302;2022-09-20T12:01:58;1.48;;;0.30;;
29732;SDS011;16643;43.158;25.302;2022-09-20T12:04:27;3.63;;;1.52;;
29732;SDS011;16643;43.158;25.302;2022-09-20T12:06:57;6.18;;;3.40;;
29732;SDS011;16643;43.158;25.302;2022-09-20T12:09:35;6.22;;;3.80;;
29732;SDS011;16643;43.158;25.302;2022-09-20T12:14:58;5.20;;;2.58;;
29732;SDS011;16643;43.158;25.302;2022-09-20T12:26:09;4.47;;;0.70;;
29732;SDS011;16643;43.158;25.302;2022-09-20T12:28:46;1.88;;;0.40;;
29732;SDS011;16643;43.158;25.302;2022-09-20T12:36:39;1.80;;;0.90;;
29732;SDS011;16643;43.158;25.302;2022-09-20T12:39:19;3.53;;;1.77;;
29732;SDS011;16643;43.158;25.302;2022-09-20T12:41:55;0.68;;;0.45;;
29732;SDS011;16643;43.158;25.302;2022-09-20T12:44:34;1.40;;;0.50;;
29732;SDS011;16643;43.158;25.302;2022-09-20T12:55:38;1.27;;;0.40;;
29732;SDS011;16643;43.158;25.302;2022-09-20T13:05:43;1.85;;;0.63;;
29732;SDS011;16643;43.158;25.302;2022-09-20T13:13:41;6.38;;;2.10;;
29732;SDS011;16643;43.158;25.302;2022-09-20T13:16:19;1.98;;;0.68;;
29732;SDS011;16643;43.158;25.302;2022-09-20T13:18:58;1.00;;;0.50;;
29732;SDS011;16643;43.158;25.302;2022-09-20T13:21:29;2.85;;;0.60;;
29732;SDS011;16643;43.158;25.302;2022-09-20T13:23:56;0.45;;;0.45;;
29732;SDS011;16643;43.158;25.302;2022-09-20T13:26:25;1.92;;;1.15;;
29732;SDS011;16643;43.158;25.302;2022-09-20T13:28:54;1.33;;;0.52;;
29732;SDS011;16643;43.158;25.302;2022-09-20T13:31:27;3.13;;;0.50;;
29732;SDS011;16643;43.158;25.302;2022-09-20T13:33:54;0.85;;;0.52;;
29732;SDS011;16643;43.158;25.302;2022-09-20T13:36:37;2.22;;;0.47;;
29732;SDS011;16643;43.158;25.302;2022-09-20T13:39:03;2.95;;;0.68;;
29732;SDS011;16643;43.158;25.302;2022-09-20T13:41:32;0.75;;;0.60;;
29732;SDS011;16643;43.158;25.302;2022-09-20T13:43:59;1.92;;;0.95;;
29732;SDS011;16643;43.158;25.302;2022-09-20T13:46:32;1.15;;;0.43;;
29732;SDS011;16643;43.158;25.302;2022-09-20T13:49:17;1.30;;;0.70;;
29732;SDS011;16643;43.158;25.302;2022-09-20T13:51:48;0.95;;;0.60;;
29732;SDS011;16643;43.158;25.302;2022-09-20T13:54:28;0.75;;;0.40;;
29732;SDS011;16643;43.158;25.302;2022-09-20T13:56:59;1.75;;;0.40;;
29732;SDS011;16643;43.158;25.302;2022-09-20T13:59:41;1.65;;;0.45;;
29732;SDS011;16643;43.158;25.302;2022-09-20T14:04:55;0.63;;;0.40;;
29732;SDS011;16643;43.158;25.302;2022-09-20T14:07:24;2.85;;;0.50;;
29732;SDS011;16643;43.158;25.302;2022-09-20T14:09:52;0.95;;;0.50;;
29732;SDS011;16643;43.158;25.302;2022-09-20T14:12:20;0.68;;;0.55;;
29732;SDS011;16643;43.158;25.302;2022-09-20T14:14:47;1.10;;;0.50;;
29732;SDS011;16643;43.158;25.302;2022-09-20T14:17:16;1.30;;;0.50;;
29732;SDS011;16643;43.158;25.302;2022-09-20T14:19:45;0.95;;;0.43;;
29732;SDS011;16643;43.158;25.302;2022-09-20T14:22:21;5.15;;;0.80;;
29732;SDS011;16643;43.158;25.302;2022-09-20T14:27:24;0.98;;;0.52;;
29732;SDS011;16643;43.158;25.302;2022-09-20T14:29:53;2.55;;;0.52;;
29732;SDS011;16643;43.158;25.302;2022-09-20T14:34:49;0.98;;;0.52;;
29732;SDS011;16643;43.158;25.302;2022-09-20T14:39:53;3.20;;;0.68;;
29732;SDS011;16643;43.158;25.302;2022-09-20T14:42:34;1.50;;;0.60;;
29732;SDS011;16643;43.158;25.302;2022-09-20T14:45:00;0.55;;;0.40;;
29732;SDS011;16643;43.158;25.302;2022-09-20T14:47:38;2.25;;;0.80;;
29732;SDS011;16643;43.158;25.302;2022-09-20T14:50:27;0.50;;;0.50;;
29732;SDS011;16643;43.158;25.302;2022-09-20T14:53:21;1.13;;;0.63;;
29732;SDS011;16643;43.158;25.302;2022-09-20T14:55:58;2.83;;;0.75;;
29732;SDS011;16643;43.158;25.302;2022-09-20T14:58:32;1.00;;;0.50;;
29732;SDS011;16643;43.158;25.302;2022-09-20T15:01:22;2.53;;;0.80;;
29732;SDS011;16643;43.158;25.302;2022-09-20T15:03:49;2.28;;;0.70;;
29732;SDS011;16643;43.158;25.302;2022-09-20T15:06:15;1.52;;;0.68;;
29732;SDS011;16643;43.158;25.302;2022-09-20T15:08:41;0.95;;;0.40;;
29732;SDS011;16643;43.158;25.302;2022-09-20T15:11:11;0.95;;;0.52;;
29732;SDS011;16643;43.158;25.302;2022-09-20T15:13:38;1.58;;;0.40;;
29732;SDS011;16643;43.158;25.302;2022-09-20T15:16:04;1.33;;;0.45;;
29732;SDS011;16643;43.158;25.302;2022-09-20T15:18:39;0.65;;;0.40;;
29732;SDS011;16643;43.158;25.302;2022-09-20T15:21:06;1.60;;;0.50;;
29732;SDS011;16643;43.158;25.302;2022-09-20T15:23:32;0.65;;;0.40;;
29732;SDS011;16643;43.158;25.302;2022-09-20T15:25:58;1.95;;;0.55;;
29732;SDS011;16643;43.158;25.302;2022-09-20T15:28:24;1.20;;;0.70;;
29732;SDS011;16643;43.158;25.302;2022-09-20T15:30:51;0.85;;;0.52;;
29732;SDS011;16643;43.158;25.302;2022-09-20T15:33:17;0.98;;;0.50;;
29732;SDS011;16643;43.158;25.302;2022-09-20T15:35:44;2.58;;;0.90;;
29732;SDS011;16643;43.158;25.302;2022-09-20T15:38:10;0.45;;;0.40;;
29732;SDS011;16643;43.158;25.302;2022-09-20T15:40:38;0.80;;;0.40;;
29732;SDS011;16643;43.158;25.302;2022-09-20T15:43:07;0.95;;;0.68;;
29732;SDS011;16643;43.158;25.302;2022-09-20T15:45:51;0.88;;;0.60;;
29732;SDS011;16643;43.158;25.302;2022-09-20T15:48:19;0.85;;;0.50;;
29732;SDS011;16643;43.158;25.302;2022-09-20T15:51:03;0.50;;;0.50;;
29732;SDS011;16643;43.158;25.302;2022-09-20T15:53:42;1.30;;;0.50;;
29732;SDS011;16643;43.158;25.302;2022-09-20T15:56:16;1.33;;;0.50;;
29732;SDS011;16643;43.158;25.302;2022-09-20T15:58:46;0.88;;;0.57;;
29732;SDS011;16643;43.158;25.302;2022-09-20T16:01:13;1.13;;;0.60;;
29732;SDS011;16643;43.158;25.302;2022-09-20T16:03:41;1.37;;;0.53;;
29732;SDS011;16643;43.158;25.302;2022-09-20T16:06:07;0.73;;;0.40;;
29732;SDS011;16643;43.158;25.302;2022-09-20T16:08:34;2.63;;;0.80;;
29732;SDS011;16643;43.158;25.302;2022-09-20T16:11:01;0.95;;;0.63;;
29732;SDS011;16643;43.158;25.302;2022-09-20T16:13:28;1.70;;;0.75;;
29732;SDS011;16643;43.158;25.302;2022-09-20T16:15:54;0.43;;;0.43;;
29732;SDS011;16643;43.158;25.302;2022-09-20T16:18:29;2.70;;;0.90;;
29732;SDS011;16643;43.158;25.302;2022-09-20T16:21:15;0.85;;;0.60;;
29732;SDS011;16643;43.158;25.302;2022-09-20T16:23:46;1.48;;;0.60;;
29732;SDS011;16643;43.158;25.302;2022-09-20T16:26:14;2.17;;;0.65;;
29732;SDS011;16643;43.158;25.302;2022-09-20T16:28:42;1.15;;;0.70;;
29732;SDS011;16643;43.158;25.302;2022-09-20T16:33:52;1.30;;;0.65;;
29732;SDS011;16643;43.158;25.302;2022-09-20T16:36:18;1.55;;;0.70;;
29732;SDS011;16643;43.158;25.302;2022-09-20T16:38:45;0.80;;;0.80;;
29732;SDS011;16643;43.158;25.302;2022-09-20T16:41:10;0.50;;;0.50;;
29732;SDS011;16643;43.158;25.302;2022-09-20T16:43:36;1.23;;;0.60;;
29732;SDS011;16643;43.158;25.302;2022-09-20T16:46:02;0.50;;;0.45;;
29732;SDS011;16643;43.158;25.302;2022-09-20T16:48:31;1.92;;;0.60;;
29732;SDS011;16643;43.158;25.302;2022-09-20T16:50:57;1.15;;;0.60;;
29732;SDS011;16643;43.158;25.302;2022-09-20T16:53:26;1.08;;;0.80;;
29732;SDS011;16643;43.158;25.302;2022-09-20T16:55:52;1.67;;;0.50;;
29732;SDS011;16643;43.158;25.302;2022-09-20T16:58:25;0.85;;;0.70;;
29732;SDS011;16643;43.158;25.302;2022-09-20T17:01:00;1.30;;;0.70;;
29732;SDS011;16643;43.158;25.302;2022-09-20T17:03:33;2.40;;;0.70;;
29732;SDS011;16643;43.158;25.302;2022-09-20T17:06:05;2.15;;;0.65;;
29732;SDS011;16643;43.158;25.302;2022-09-20T17:08:32;0.50;;;0.50;;
29732;SDS011;16643;43.158;25.302;2022-09-20T17:11:05;0.90;;;0.60;;
29732;SDS011;16643;43.158;25.302;2022-09-20T17:13:36;1.83;;;0.80;;
29732;SDS011;16643;43.158;25.302;2022-09-20T17:16:28;0.93;;;0.60;;
29732;SDS011;16643;43.158;25.302;2022-09-20T17:18:55;1.50;;;0.57;;
29732;SDS011;16643;43.158;25.302;2022-09-20T17:21:26;1.42;;;0.60;;
29732;SDS011;16643;43.158;25.302;2022-09-20T17:23:55;1.55;;;0.80;;
29732;SDS011;16643;43.158;25.302;2022-09-20T17:26:26;1.63;;;0.80;;
29732;SDS011;16643;43.158;25.302;2022-09-20T17:28:57;1.58;;;0.82;;
29732;SDS011;16643;43.158;25.302;2022-09-20T17:31:28;1.05;;;0.70;;
29732;SDS011;16643;43.158;25.302;2022-09-20T17:33:58;3.05;;;0.70;;
29732;SDS011;16643;43.158;25.302;2022-09-20T17:36:28;2.50;;;0.90;;
29732;SDS011;16643;43.158;25.302;2022-09-20T17:38:57;1.40;;;0.70;;
29732;SDS011;16643;43.158;25.302;2022-09-20T17:41:25;1.13;;;0.63;;
29732;SDS011;16643;43.158;25.302;2022-09-20T17:43:52;3.70;;;0.70;;
29732;SDS011;16643;43.158;25.302;2022-09-20T17:46:20;1.48;;;0.85;;
29732;SDS011;16643;43.158;25.302;2022-09-20T17:49:11;2.65;;;1.17;;
29732;SDS011;16643;43.158;25.302;2022-09-20T17:51:44;0.85;;;0.63;;
29732;SDS011;16643;43.158;25.302;2022-09-20T17:54:14;2.25;;;0.75;;
29732;SDS011;16643;43.158;25.302;2022-09-20T17:56:46;2.58;;;0.80;;
29732;SDS011;16643;43.158;25.302;2022-09-20T17:59:14;1.25;;;0.80;;
29732;SDS011;16643;43.158;25.302;2022-09-20T18:01:42;1.23;;;1.00;;
29732;SDS011;16643;43.158;25.302;2022-09-20T18:04:09;3.00;;;1.10;;
29732;SDS011;16643;43.158;25.302;2022-09-20T18:06:46;1.40;;;0.85;;
29732;SDS011;16643;43.158;25.302;2022-09-20T18:09:14;4.03;;;0.98;;
29732;SDS011;16643;43.158;25.302;2022-09-20T18:11:42;1.80;;;1.10;;
29732;SDS011;16643;43.158;25.302;2022-09-20T18:14:10;1.00;;;0.77;;
29732;SDS011;16643;43.158;25.302;2022-09-20T18:16:37;1.13;;;0.65;;
29732;SDS011;16643;43.158;25.302;2022-09-20T18:19:05;1.73;;;0.80;;
29732;SDS011;16643;43.158;25.302;2022-09-20T18:21:32;2.20;;;1.05;;
29732;SDS011;16643;43.158;25.302;2022-09-20T18:24:00;2.35;;;0.82;;
29732;SDS011;16643;43.158;25.302;2022-09-20T18:26:29;2.75;;;1.20;;
29732;SDS011;16643;43.158;25.302;2022-09-20T18:31:27;2.10;;;1.10;;
29732;SDS011;16643;43.158;25.302;2022-09-20T18:34:00;3.38;;;1.08;;
29732;SDS011;16643;43.158;25.302;2022-09-20T18:36:32;3.10;;;1.65;;
29732;SDS011;16643;43.158;25.302;2022-09-20T18:39:00;2.38;;;1.00;;
29732;SDS011;16643;43.158;25.302;2022-09-20T18:41:28;1.25;;;1.05;;
29732;SDS011;16643;43.158;25.302;2022-09-20T18:43:58;1.70;;;1.17;;
29732;SDS011;16643;43.158;25.302;2022-09-20T18:46:26;2.83;;;1.10;;
29732;SDS011;16643;43.158;25.302;2022-09-20T18:48:55;1.88;;;1.27;;
29732;SDS011;16643;43.158;25.302;2022-09-20T18:51:23;2.42;;;1.48;;
29732;SDS011;16643;43.158;25.302;2022-09-20T18:53:50;2.03;;;1.20;;
29732;SDS011;16643;43.158;25.302;2022-09-20T18:56:20;1.45;;;1.25;;
29732;SDS011;16643;43.158;25.302;2022-09-20T18:58:47;2.00;;;1.42;;
29732;SDS011;16643;43.158;25.302;2022-09-20T19:26:46;1.63;;;1.05;;
29732;SDS011;16643;43.158;25.302;2022-09-20T19:29:25;3.58;;;1.20;;
29732;SDS011;16643;43.158;25.302;2022-09-20T19:31:56;0.95;;;0.88;;
29732;SDS011;16643;43.158;25.302;2022-09-20T19:34:29;1.10;;;1.00;;
29732;SDS011;16643;43.158;25.302;2022-09-20T19:39:49;1.75;;;1.00;;
29732;SDS011;16643;43.158;25.302;2022-09-20T19:48:08;2.20;;;0.85;;
29732;SDS011;16643;43.158;25.302;2022-09-20T19:50:41;3.70;;;1.20;;
29732;SDS011;16643;43.158;25.302;2022-09-20T19:53:12;1.40;;;0.80;;
29732;SDS011;16643;43.158;25.302;2022-09-20T19:55:39;1.33;;;1.07;;
29732;SDS011;16643;43.158;25.302;2022-09-20T19:58:10;1.88;;;0.98;;
29732;SDS011;16643;43.158;25.302;2022-09-20T20:00:36;1.15;;;0.85;;
29732;SDS011;16643;43.158;25.302;2022-09-20T20:03:02;1.20;;;1.00;;
29732;SDS011;16643;43.158;25.302;2022-09-20T20:05:28;1.40;;;0.85;;
29732;SDS011;16643;43.158;25.302;2022-09-20T20:15:57;1.45;;;1.25;;
29732;SDS011;16643;43.158;25.302;2022-09-20T20:18:30;1.38;;;0.70;;
29732;SDS011;16643;43.158;25.302;2022-09-20T20:21:29;1.13;;;0.70;;
29732;SDS011;16643;43.158;25.302;2022-09-20T20:26:46;1.85;;;0.93;;
29732;SDS011;16643;43.158;25.302;2022-09-20T20:29:11;1.38;;;0.80;;
29732;SDS011;16643;43.158;25.302;2022-09-20T20:31:37;1.90;;;0.75;;
29732;SDS011;16643;43.158;25.302;2022-09-20T20:34:03;1.33;;;1.08;;
29732;SDS011;16643;43.158;25.302;2022-09-20T20:36:29;0.90;;;0.70;;
29732;SDS011;16643;43.158;25.302;2022-09-20T20:38:54;2.58;;;0.82;;
29732;SDS011;16643;43.158;25.302;2022-09-20T20:41:20;2.58;;;1.00;;
29732;SDS011;16643;43.158;25.302;2022-09-20T20:43:46;2.40;;;0.93;;
29732;SDS011;16643;43.158;25.302;2022-09-20T20:46:13;1.08;;;0.70;;